sensor_id;sensor_type;location;lat;lon;timestamp;P1;durP1;ratioP1;P2;durP2;ratioP2
8458;SDS011;4266;48.816;9.154;2024-01-15T00:02:17;25.07;;;15.10;;
8458;SDS011;4266;48.816;9.154;2024-01-15T00:04:42;24.63;;;15.30;;
8458;SDS011;4266;48.816;9.154;2024-01-15T00:07:08;24.00;;;15.77;;
8458;SDS011;4266;48.816;9.154;2024-01-15T00:09:35;22.70;;;14.77;;
8458;SDS011;4266;48.816;9.154;2024-01-15T00:12:00;26.90;;;15.13;;
8458;SDS011;4266;48.816;9.154;2024-01-15T00:14:26;25.47;;;15.20;;
8458;SDS011;4266;48.816;9.154;2024-01-15T00:16:51;25.07;;;15.83;;
8458;SDS011;4266;48.816;9.154;2024-01-15T00:19:17;26.40;;;16.13;;
8458;SDS011;4266;48.816;9.154;2024-01-15T00:21:44;26.57;;;15.47;;
8458;SDS011;4266;48.816;9.154;2024-01-15T00:24:09;26.13;;;16.37;;
8458;SDS011;4266;48.816;9.154;2024-01-15T00:26:35;25.53;;;14.60;;
8458;SDS011;4266;48.816;9.154;2024-01-15T00:29:01;28.13;;;16.60;;
8458;SDS011;4266;48.816;9.154;2024-01-15T00:31:27;22.83;;;15.77;;
8458;SDS011;4266;48.816;9.154;2024-01-15T00:33:53;24.40;;;16.50;;
8458;SDS011;4266;48.816;9.154;2024-01-15T00:36:18;23.97;;;15.33;;
8458;SDS011;4266;48.816;9.154;2024-01-15T00:38:44;21.73;;;14.20;;
8458;SDS011;4266;48.816;9.154;2024-01-15T00:41:10;27.40;;;15.57;;
8458;SDS011;4266;48.816;9.154;2024-01-15T00:43:35;23.53;;;14.70;;
8458;SDS011;4266;48.816;9.154;2024-01-15T00:46:02;26.50;;;16.63;;
8458;SDS011;4266;48.816;9.154;2024-01-15T00:48:27;23.37;;;15.60;;
8458;SDS011;4266;48.816;9.154;2024-01-15T00:50:52;24.70;;;15.03;;
8458;SDS011;4266;48.816;9.154;2024-01-15T00:53:18;23.43;;;14.93;;
8458;SDS011;4266;48.816;9.154;2024-01-15T00:55:44;26.13;;;16.27;;
8458;SDS011;4266;48.816;9.154;2024-01-15T00:58:09;22.90;;;14.77;;
8458;SDS011;4266;48.816;9.154;2024-01-15T01:00:36;21.20;;;13.50;;
8458;SDS011;4266;48.816;9.154;2024-01-15T01:03:01;24.70;;;14.87;;
8458;SDS011;4266;48.816;9.154;2024-01-15T01:05:28;25.10;;;15.00;;
8458;SDS011;4266;48.816;9.154;2024-01-15T01:07:53;20.67;;;15.10;;
8458;SDS011;4266;48.816;9.154;2024-01-15T01:10:19;22.63;;;13.90;;
8458;SDS011;4266;48.816;9.154;2024-01-15T01:12:45;21.60;;;13.40;;
8458;SDS011;4266;48.816;9.154;2024-01-15T01:15:10;23.00;;;15.10;;
8458;SDS011;4266;48.816;9.154;2024-01-15T01:17:36;24.30;;;14.30;;
8458;SDS011;4266;48.816;9.154;2024-01-15T01:20:02;24.30;;;14.50;;
8458;SDS011;4266;48.816;9.154;2024-01-15T01:22:28;19.83;;;13.73;;
8458;SDS011;4266;48.816;9.154;2024-01-15T01:24:54;21.57;;;13.87;;
8458;SDS011;4266;48.816;9.154;2024-01-15T01:27:20;24.03;;;14.33;;
8458;SDS011;4266;48.816;9.154;2024-01-15T01:29:46;23.07;;;13.93;;
8458;SDS011;4266;48.816;9.154;2024-01-15T01:32:12;18.23;;;12.90;;
8458;SDS011;4266;48.816;9.154;2024-01-15T01:34:40;20.13;;;13.37;;
8458;SDS011;4266;48.816;9.154;2024-01-15T01:37:05;23.20;;;14.03;;
8458;SDS011;4266;48.816;9.154;2024-01-15T01:39:31;23.40;;;14.03;;
8458;SDS011;4266;48.816;9.154;2024-01-15T01:41:57;22.03;;;13.03;;
8458;SDS011;4266;48.816;9.154;2024-01-15T01:44:23;20.20;;;13.53;;
8458;SDS011;4266;48.816;9.154;2024-01-15T01:46:49;18.77;;;13.33;;
8458;SDS011;4266;48.816;9.154;2024-01-15T01:49:15;20.77;;;14.07;;
8458;SDS011;4266;48.816;9.154;2024-01-15T01:51:40;19.00;;;12.27;;
8458;SDS011;4266;48.816;9.154;2024-01-15T01:54:06;19.47;;;12.77;;
8458;SDS011;4266;48.816;9.154;2024-01-15T01:56:33;21.63;;;14.07;;
8458;SDS011;4266;48.816;9.154;2024-01-15T01:58:58;22.00;;;14.10;;
8458;SDS011;4266;48.816;9.154;2024-01-15T02:01:24;19.67;;;12.30;;
8458;SDS011;4266;48.816;9.154;2024-01-15T02:03:50;18.33;;;12.30;;
8458;SDS011;4266;48.816;9.154;2024-01-15T02:06:15;19.53;;;12.40;;
8458;SDS011;4266;48.816;9.154;2024-01-15T02:08:43;19.57;;;13.13;;
8458;SDS011;4266;48.816;9.154;2024-01-15T02:11:08;19.97;;;12.53;;
8458;SDS011;4266;48.816;9.154;2024-01-15T02:13:34;19.13;;;12.33;;
8458;SDS011;4266;48.816;9.154;2024-01-15T02:15:59;19.23;;;12.40;;
8458;SDS011;4266;48.816;9.154;2024-01-15T02:18:26;20.63;;;13.50;;
8458;SDS011;4266;48.816;9.154;2024-01-15T02:20:51;17.93;;;12.17;;
8458;SDS011;4266;48.816;9.154;2024-01-15T02:23:17;21.17;;;12.87;;
8458;SDS011;4266;48.816;9.154;2024-01-15T02:25:44;17.83;;;12.50;;
8458;SDS011;4266;48.816;9.154;2024-01-15T02:28:12;18.47;;;12.23;;
8458;SDS011;4266;48.816;9.154;2024-01-15T02:30:37;17.77;;;12.33;;
8458;SDS011;4266;48.816;9.154;2024-01-15T02:33:02;20.23;;;13.17;;
8458;SDS011;4266;48.816;9.154;2024-01-15T02:35:28;21.40;;;13.07;;
8458;SDS011;4266;48.816;9.154;2024-01-15T02:37:54;17.77;;;12.37;;
8458;SDS011;4266;48.816;9.154;2024-01-15T02:40:19;19.93;;;12.20;;
8458;SDS011;4266;48.816;9.154;2024-01-15T02:42:45;19.47;;;12.90;;
8458;SDS011;4266;48.816;9.154;2024-01-15T02:45:11;21.70;;;12.97;;
8458;SDS011;4266;48.816;9.154;2024-01-15T02:47:36;18.57;;;12.43;;
8458;SDS011;4266;48.816;9.154;2024-01-15T02:50:02;20.20;;;13.60;;
8458;SDS011;4266;48.816;9.154;2024-01-15T02:52:29;16.50;;;12.00;;
8458;SDS011;4266;48.816;9.154;2024-01-15T02:54:55;19.27;;;12.77;;
8458;SDS011;4266;48.816;9.154;2024-01-15T02:57:21;20.90;;;12.43;;
8458;SDS011;4266;48.816;9.154;2024-01-15T02:59:46;18.50;;;12.53;;
8458;SDS011;4266;48.816;9.154;2024-01-15T03:02:12;19.80;;;12.70;;
8458;SDS011;4266;48.816;9.154;2024-01-15T03:04:42;17.37;;;11.77;;
8458;SDS011;4266;48.816;9.154;2024-01-15T03:07:04;19.37;;;13.70;;
8458;SDS011;4266;48.816;9.154;2024-01-15T03:09:30;20.10;;;13.23;;
8458;SDS011;4266;48.816;9.154;2024-01-15T03:11:55;19.53;;;12.67;;
8458;SDS011;4266;48.816;9.154;2024-01-15T03:14:21;19.33;;;13.30;;
8458;SDS011;4266;48.816;9.154;2024-01-15T03:16:47;17.87;;;12.27;;
8458;SDS011;4266;48.816;9.154;2024-01-15T03:19:13;19.33;;;13.50;;
8458;SDS011;4266;48.816;9.154;2024-01-15T03:21:39;19.63;;;13.03;;
8458;SDS011;4266;48.816;9.154;2024-01-15T03:24:05;18.90;;;12.50;;
8458;SDS011;4266;48.816;9.154;2024-01-15T03:26:31;20.10;;;11.83;;
8458;SDS011;4266;48.816;9.154;2024-01-15T03:28:57;19.53;;;11.43;;
8458;SDS011;4266;48.816;9.154;2024-01-15T03:31:23;18.83;;;12.37;;
8458;SDS011;4266;48.816;9.154;2024-01-15T03:33:49;20.33;;;13.00;;
8458;SDS011;4266;48.816;9.154;2024-01-15T03:36:15;20.67;;;12.23;;
8458;SDS011;4266;48.816;9.154;2024-01-15T03:38:41;19.87;;;12.90;;
8458;SDS011;4266;48.816;9.154;2024-01-15T03:41:07;19.23;;;13.20;;
8458;SDS011;4266;48.816;9.154;2024-01-15T03:43:33;16.80;;;12.37;;
8458;SDS011;4266;48.816;9.154;2024-01-15T03:45:59;19.17;;;12.00;;
8458;SDS011;4266;48.816;9.154;2024-01-15T03:48:25;18.40;;;11.77;;
8458;SDS011;4266;48.816;9.154;2024-01-15T03:50:51;17.00;;;12.00;;
8458;SDS011;4266;48.816;9.154;2024-01-15T03:53:17;18.47;;;12.13;;
8458;SDS011;4266;48.816;9.154;2024-01-15T03:55:43;19.67;;;11.53;;
8458;SDS011;4266;48.816;9.154;2024-01-15T03:58:08;15.37;;;12.10;;
8458;SDS011;4266;48.816;9.154;2024-01-15T04:00:34;16.23;;;11.50;;
8458;SDS011;4266;48.816;9.154;2024-01-15T04:03:00;14.40;;;11.30;;
8458;SDS011;4266;48.816;9.154;2024-01-15T04:05:25;19.60;;;11.73;;
8458;SDS011;4266;48.816;9.154;2024-01-15T04:07:51;14.40;;;11.43;;
8458;SDS011;4266;48.816;9.154;2024-01-15T04:10:16;13.97;;;10.63;;
8458;SDS011;4266;48.816;9.154;2024-01-15T04:12:43;17.87;;;11.50;;
8458;SDS011;4266;48.816;9.154;2024-01-15T04:15:09;18.33;;;11.67;;
8458;SDS011;4266;48.816;9.154;2024-01-15T04:17:34;13.30;;;9.90;;
8458;SDS011;4266;48.816;9.154;2024-01-15T04:20:00;16.73;;;11.00;;
8458;SDS011;4266;48.816;9.154;2024-01-15T04:22:26;14.90;;;10.10;;
8458;SDS011;4266;48.816;9.154;2024-01-15T04:24:51;14.83;;;10.10;;
8458;SDS011;4266;48.816;9.154;2024-01-15T04:27:17;16.53;;;10.40;;
8458;SDS011;4266;48.816;9.154;2024-01-15T04:29:42;11.63;;;9.80;;
8458;SDS011;4266;48.816;9.154;2024-01-15T04:32:08;16.23;;;10.60;;
8458;SDS011;4266;48.816;9.154;2024-01-15T04:34:34;13.83;;;9.97;;
8458;SDS011;4266;48.816;9.154;2024-01-15T04:36:59;14.73;;;10.97;;
8458;SDS011;4266;48.816;9.154;2024-01-15T04:39:25;13.43;;;11.07;;
8458;SDS011;4266;48.816;9.154;2024-01-15T04:41:51;12.13;;;9.23;;
8458;SDS011;4266;48.816;9.154;2024-01-15T04:44:17;15.37;;;10.90;;
8458;SDS011;4266;48.816;9.154;2024-01-15T04:46:43;15.53;;;10.67;;
8458;SDS011;4266;48.816;9.154;2024-01-15T04:49:09;17.10;;;11.23;;
8458;SDS011;4266;48.816;9.154;2024-01-15T04:51:34;13.73;;;9.73;;
8458;SDS011;4266;48.816;9.154;2024-01-15T04:54:00;14.10;;;10.10;;
8458;SDS011;4266;48.816;9.154;2024-01-15T04:56:25;13.10;;;9.70;;
8458;SDS011;4266;48.816;9.154;2024-01-15T04:58:52;14.30;;;11.23;;
8458;SDS011;4266;48.816;9.154;2024-01-15T05:01:18;12.33;;;8.80;;
8458;SDS011;4266;48.816;9.154;2024-01-15T05:03:43;15.80;;;10.97;;
8458;SDS011;4266;48.816;9.154;2024-01-15T05:06:09;15.37;;;10.50;;
8458;SDS011;4266;48.816;9.154;2024-01-15T05:08:35;14.00;;;11.20;;
8458;SDS011;4266;48.816;9.154;2024-01-15T05:11:01;16.30;;;10.43;;
8458;SDS011;4266;48.816;9.154;2024-01-15T05:13:27;15.60;;;10.67;;
8458;SDS011;4266;48.816;9.154;2024-01-15T05:15:52;16.47;;;10.47;;
8458;SDS011;4266;48.816;9.154;2024-01-15T05:18:18;13.67;;;9.57;;
8458;SDS011;4266;48.816;9.154;2024-01-15T05:20:44;13.20;;;9.67;;
8458;SDS011;4266;48.816;9.154;2024-01-15T05:23:09;12.27;;;9.10;;
8458;SDS011;4266;48.816;9.154;2024-01-15T05:25:35;11.23;;;9.17;;
8458;SDS011;4266;48.816;9.154;2024-01-15T05:28:01;13.27;;;9.47;;
8458;SDS011;4266;48.816;9.154;2024-01-15T05:30:26;12.83;;;9.20;;
8458;SDS011;4266;48.816;9.154;2024-01-15T05:32:52;13.20;;;9.60;;
8458;SDS011;4266;48.816;9.154;2024-01-15T05:35:18;10.93;;;8.70;;
8458;SDS011;4266;48.816;9.154;2024-01-15T05:37:44;13.23;;;9.33;;
8458;SDS011;4266;48.816;9.154;2024-01-15T05:40:09;11.20;;;9.13;;
8458;SDS011;4266;48.816;9.154;2024-01-15T05:42:35;11.50;;;8.70;;
8458;SDS011;4266;48.816;9.154;2024-01-15T05:45:01;12.80;;;9.13;;
8458;SDS011;4266;48.816;9.154;2024-01-15T05:47:27;11.03;;;8.67;;
8458;SDS011;4266;48.816;9.154;2024-01-15T05:49:54;10.03;;;8.43;;
8458;SDS011;4266;48.816;9.154;2024-01-15T05:52:19;10.60;;;8.30;;
8458;SDS011;4266;48.816;9.154;2024-01-15T05:54:45;9.80;;;8.40;;
8458;SDS011;4266;48.816;9.154;2024-01-15T05:57:10;11.40;;;9.40;;
8458;SDS011;4266;48.816;9.154;2024-01-15T05:59:37;12.80;;;9.03;;
8458;SDS011;4266;48.816;9.154;2024-01-15T06:02:02;11.00;;;8.90;;
8458;SDS011;4266;48.816;9.154;2024-01-15T06:04:28;9.87;;;8.57;;
8458;SDS011;4266;48.816;9.154;2024-01-15T06:06:54;13.17;;;10.73;;
8458;SDS011;4266;48.816;9.154;2024-01-15T06:09:20;14.50;;;10.07;;
8458;SDS011;4266;48.816;9.154;2024-01-15T06:11:45;12.63;;;9.20;;
8458;SDS011;4266;48.816;9.154;2024-01-15T06:14:11;12.57;;;9.50;;
8458;SDS011;4266;48.816;9.154;2024-01-15T06:16:37;14.10;;;9.90;;
8458;SDS011;4266;48.816;9.154;2024-01-15T06:19:02;12.80;;;9.77;;
8458;SDS011;4266;48.816;9.154;2024-01-15T06:21:28;12.07;;;9.23;;
8458;SDS011;4266;48.816;9.154;2024-01-15T06:23:54;11.77;;;9.13;;
8458;SDS011;4266;48.816;9.154;2024-01-15T06:26:20;12.83;;;10.30;;
8458;SDS011;4266;48.816;9.154;2024-01-15T06:28:46;12.27;;;9.50;;
8458;SDS011;4266;48.816;9.154;2024-01-15T06:31:11;12.47;;;10.23;;
8458;SDS011;4266;48.816;9.154;2024-01-15T06:33:37;12.80;;;9.83;;
8458;SDS011;4266;48.816;9.154;2024-01-15T06:36:03;14.13;;;10.00;;
8458;SDS011;4266;48.816;9.154;2024-01-15T06:38:29;13.23;;;10.27;;
8458;SDS011;4266;48.816;9.154;2024-01-15T06:40:54;11.93;;;9.80;;
8458;SDS011;4266;48.816;9.154;2024-01-15T06:43:20;15.70;;;10.83;;
8458;SDS011;4266;48.816;9.154;2024-01-15T06:45:46;14.53;;;10.37;;
8458;SDS011;4266;48.816;9.154;2024-01-15T06:48:11;13.23;;;11.00;;
8458;SDS011;4266;48.816;9.154;2024-01-15T06:50:37;15.13;;;10.10;;
8458;SDS011;4266;48.816;9.154;2024-01-15T06:53:03;13.63;;;10.57;;
8458;SDS011;4266;48.816;9.154;2024-01-15T06:55:29;14.17;;;9.77;;
8458;SDS011;4266;48.816;9.154;2024-01-15T06:57:55;12.97;;;10.47;;
8458;SDS011;4266;48.816;9.154;2024-01-15T07:00:21;13.20;;;10.57;;
8458;SDS011;4266;48.816;9.154;2024-01-15T07:02:46;12.20;;;10.00;;
8458;SDS011;4266;48.816;9.154;2024-01-15T07:05:12;11.83;;;9.33;;
8458;SDS011;4266;48.816;9.154;2024-01-15T07:07:38;13.13;;;9.30;;
8458;SDS011;4266;48.816;9.154;2024-01-15T07:10:04;11.93;;;9.33;;
8458;SDS011;4266;48.816;9.154;2024-01-15T07:12:30;12.50;;;9.17;;
8458;SDS011;4266;48.816;9.154;2024-01-15T07:14:56;10.93;;;8.43;;
8458;SDS011;4266;48.816;9.154;2024-01-15T07:17:23;13.17;;;9.50;;
8458;SDS011;4266;48.816;9.154;2024-01-15T07:19:48;12.23;;;9.57;;
8458;SDS011;4266;48.816;9.154;2024-01-15T07:22:14;13.13;;;9.97;;
8458;SDS011;4266;48.816;9.154;2024-01-15T07:24:40;14.23;;;10.00;;
8458;SDS011;4266;48.816;9.154;2024-01-15T07:27:06;12.30;;;10.43;;
8458;SDS011;4266;48.816;9.154;2024-01-15T07:29:32;12.87;;;9.90;;
8458;SDS011;4266;48.816;9.154;2024-01-15T07:31:59;14.20;;;9.63;;
8458;SDS011;4266;48.816;9.154;2024-01-15T07:34:24;12.53;;;9.60;;
8458;SDS011;4266;48.816;9.154;2024-01-15T07:36:50;15.13;;;10.63;;
8458;SDS011;4266;48.816;9.154;2024-01-15T07:39:16;13.43;;;10.13;;
8458;SDS011;4266;48.816;9.154;2024-01-15T07:41:41;14.03;;;10.30;;
8458;SDS011;4266;48.816;9.154;2024-01-15T07:44:08;13.70;;;10.17;;
8458;SDS011;4266;48.816;9.154;2024-01-15T07:46:33;13.20;;;10.57;;
8458;SDS011;4266;48.816;9.154;2024-01-15T07:48:59;12.60;;;10.27;;
8458;SDS011;4266;48.816;9.154;2024-01-15T07:51:25;13.73;;;9.87;;
8458;SDS011;4266;48.816;9.154;2024-01-15T07:53:52;14.63;;;10.57;;
8458;SDS011;4266;48.816;9.154;2024-01-15T07:56:17;12.67;;;10.30;;
8458;SDS011;4266;48.816;9.154;2024-01-15T07:58:42;14.87;;;10.93;;
8458;SDS011;4266;48.816;9.154;2024-01-15T08:01:08;13.47;;;11.07;;
8458;SDS011;4266;48.816;9.154;2024-01-15T08:03:34;12.57;;;9.83;;
8458;SDS011;4266;48.816;9.154;2024-01-15T08:05:59;14.17;;;9.90;;
8458;SDS011;4266;48.816;9.154;2024-01-15T08:08:25;15.77;;;10.57;;
8458;SDS011;4266;48.816;9.154;2024-01-15T08:10:52;15.90;;;10.67;;
8458;SDS011;4266;48.816;9.154;2024-01-15T08:13:17;14.03;;;10.73;;
8458;SDS011;4266;48.816;9.154;2024-01-15T08:15:43;15.37;;;10.67;;
8458;SDS011;4266;48.816;9.154;2024-01-15T08:18:09;15.23;;;10.87;;
8458;SDS011;4266;48.816;9.154;2024-01-15T08:20:34;13.20;;;11.27;;
8458;SDS011;4266;48.816;9.154;2024-01-15T08:23:00;19.57;;;11.43;;
8458;SDS011;4266;48.816;9.154;2024-01-15T08:25:26;14.37;;;10.33;;
8458;SDS011;4266;48.816;9.154;2024-01-15T08:27:52;14.13;;;10.37;;
8458;SDS011;4266;48.816;9.154;2024-01-15T08:30:17;17.43;;;10.83;;
8458;SDS011;4266;48.816;9.154;2024-01-15T08:32:43;15.67;;;9.87;;
8458;SDS011;4266;48.816;9.154;2024-01-15T08:35:09;12.03;;;9.20;;
8458;SDS011;4266;48.816;9.154;2024-01-15T08:37:34;14.03;;;9.83;;
8458;SDS011;4266;48.816;9.154;2024-01-15T08:40:00;10.83;;;9.27;;
8458;SDS011;4266;48.816;9.154;2024-01-15T08:42:26;11.70;;;9.00;;
8458;SDS011;4266;48.816;9.154;2024-01-15T08:44:52;10.90;;;9.50;;
8458;SDS011;4266;48.816;9.154;2024-01-15T08:47:18;10.97;;;8.67;;
8458;SDS011;4266;48.816;9.154;2024-01-15T08:49:43;11.57;;;8.30;;
8458;SDS011;4266;48.816;9.154;2024-01-15T08:52:09;14.27;;;9.93;;
8458;SDS011;4266;48.816;9.154;2024-01-15T08:54:35;9.80;;;8.17;;
8458;SDS011;4266;48.816;9.154;2024-01-15T08:57:00;11.70;;;8.70;;
8458;SDS011;4266;48.816;9.154;2024-01-15T08:59:27;11.20;;;8.60;;
8458;SDS011;4266;48.816;9.154;2024-01-15T09:01:52;12.30;;;8.13;;
8458;SDS011;4266;48.816;9.154;2024-01-15T09:04:18;10.10;;;7.77;;
8458;SDS011;4266;48.816;9.154;2024-01-15T09:06:45;10.77;;;8.10;;
8458;SDS011;4266;48.816;9.154;2024-01-15T09:09:10;12.97;;;8.40;;
8458;SDS011;4266;48.816;9.154;2024-01-15T09:11:36;11.57;;;7.57;;
8458;SDS011;4266;48.816;9.154;2024-01-15T09:14:01;11.17;;;8.07;;
8458;SDS011;4266;48.816;9.154;2024-01-15T09:16:27;9.87;;;7.73;;
8458;SDS011;4266;48.816;9.154;2024-01-15T09:18:53;8.40;;;7.23;;
8458;SDS011;4266;48.816;9.154;2024-01-15T09:21:18;7.90;;;6.93;;
8458;SDS011;4266;48.816;9.154;2024-01-15T09:23:44;8.80;;;7.03;;
8458;SDS011;4266;48.816;9.154;2024-01-15T09:26:10;9.20;;;7.30;;
8458;SDS011;4266;48.816;9.154;2024-01-15T09:28:35;9.83;;;8.03;;
8458;SDS011;4266;48.816;9.154;2024-01-15T09:31:01;9.50;;;7.47;;
8458;SDS011;4266;48.816;9.154;2024-01-15T09:33:27;12.07;;;7.57;;
8458;SDS011;4266;48.816;9.154;2024-01-15T09:35:53;12.60;;;7.13;;
8458;SDS011;4266;48.816;9.154;2024-01-15T09:38:19;10.03;;;7.33;;
8458;SDS011;4266;48.816;9.154;2024-01-15T09:40:45;9.20;;;7.20;;
8458;SDS011;4266;48.816;9.154;2024-01-15T09:43:10;9.57;;;7.63;;
8458;SDS011;4266;48.816;9.154;2024-01-15T09:45:35;9.30;;;6.83;;
8458;SDS011;4266;48.816;9.154;2024-01-15T09:48:01;7.63;;;6.73;;
8458;SDS011;4266;48.816;9.154;2024-01-15T09:50:27;7.30;;;6.60;;
8458;SDS011;4266;48.816;9.154;2024-01-15T09:52:53;7.83;;;7.13;;
8458;SDS011;4266;48.816;9.154;2024-01-15T09:55:18;8.87;;;6.97;;
8458;SDS011;4266;48.816;9.154;2024-01-15T09:57:44;11.50;;;7.20;;
8458;SDS011;4266;48.816;9.154;2024-01-15T10:00:10;8.73;;;6.97;;
8458;SDS011;4266;48.816;9.154;2024-01-15T10:02:36;8.13;;;7.07;;
8458;SDS011;4266;48.816;9.154;2024-01-15T10:05:02;6.97;;;6.17;;
8458;SDS011;4266;48.816;9.154;2024-01-15T10:07:27;6.77;;;6.07;;
8458;SDS011;4266;48.816;9.154;2024-01-15T10:09:54;8.57;;;6.80;;
8458;SDS011;4266;48.816;9.154;2024-01-15T10:12:21;8.13;;;6.73;;
8458;SDS011;4266;48.816;9.154;2024-01-15T10:14:46;7.47;;;6.40;;
8458;SDS011;4266;48.816;9.154;2024-01-15T10:17:13;10.40;;;7.40;;
8458;SDS011;4266;48.816;9.154;2024-01-15T10:19:39;13.97;;;7.30;;
8458;SDS011;4266;48.816;9.154;2024-01-15T10:22:05;8.67;;;6.93;;
8458;SDS011;4266;48.816;9.154;2024-01-15T10:24:31;10.50;;;7.20;;
8458;SDS011;4266;48.816;9.154;2024-01-15T10:27:07;10.17;;;6.93;;
8458;SDS011;4266;48.816;9.154;2024-01-15T10:29:33;8.23;;;6.17;;
8458;SDS011;4266;48.816;9.154;2024-01-15T10:31:59;7.63;;;6.83;;
8458;SDS011;4266;48.816;9.154;2024-01-15T10:34:25;12.43;;;6.90;;
8458;SDS011;4266;48.816;9.154;2024-01-15T10:36:50;8.43;;;6.83;;
8458;SDS011;4266;48.816;9.154;2024-01-15T10:39:17;9.60;;;6.97;;
8458;SDS011;4266;48.816;9.154;2024-01-15T10:41:43;7.73;;;5.93;;
8458;SDS011;4266;48.816;9.154;2024-01-15T10:44:08;7.37;;;5.90;;
8458;SDS011;4266;48.816;9.154;2024-01-15T10:46:34;7.40;;;6.00;;
8458;SDS011;4266;48.816;9.154;2024-01-15T10:49:00;6.67;;;5.97;;
8458;SDS011;4266;48.816;9.154;2024-01-15T10:51:26;9.23;;;5.73;;
8458;SDS011;4266;48.816;9.154;2024-01-15T10:53:52;6.60;;;6.00;;
8458;SDS011;4266;48.816;9.154;2024-01-15T10:56:18;6.80;;;6.10;;
8458;SDS011;4266;48.816;9.154;2024-01-15T10:58:44;7.00;;;5.77;;
8458;SDS011;4266;48.816;9.154;2024-01-15T11:01:11;6.97;;;6.03;;
8458;SDS011;4266;48.816;9.154;2024-01-15T11:03:36;7.47;;;6.23;;
8458;SDS011;4266;48.816;9.154;2024-01-15T11:06:02;6.67;;;5.97;;
8458;SDS011;4266;48.816;9.154;2024-01-15T11:08:28;7.07;;;5.37;;
8458;SDS011;4266;48.816;9.154;2024-01-15T11:10:54;6.00;;;5.47;;
8458;SDS011;4266;48.816;9.154;2024-01-15T11:13:22;6.07;;;5.47;;
8458;SDS011;4266;48.816;9.154;2024-01-15T11:18:20;7.07;;;5.93;;
8458;SDS011;4266;48.816;9.154;2024-01-15T11:26:02;7.97;;;6.47;;
8458;SDS011;4266;48.816;9.154;2024-01-15T11:28:46;7.60;;;6.70;;
8458;SDS011;4266;48.816;9.154;2024-01-15T11:30:58;9.60;;;7.00;;
8458;SDS011;4266;48.816;9.154;2024-01-15T11:35:58;7.87;;;6.40;;
8458;SDS011;4266;48.816;9.154;2024-01-15T11:38:27;7.57;;;6.70;;
8458;SDS011;4266;48.816;9.154;2024-01-15T11:40:53;8.53;;;6.87;;
8458;SDS011;4266;48.816;9.154;2024-01-15T11:43:18;7.77;;;6.87;;
8458;SDS011;4266;48.816;9.154;2024-01-15T11:45:44;8.30;;;6.43;;
8458;SDS011;4266;48.816;9.154;2024-01-15T11:48:10;8.93;;;7.00;;
8458;SDS011;4266;48.816;9.154;2024-01-15T11:50:36;8.13;;;6.93;;
8458;SDS011;4266;48.816;9.154;2024-01-15T11:53:02;8.63;;;6.17;;
8458;SDS011;4266;48.816;9.154;2024-01-15T11:55:28;8.53;;;6.13;;
8458;SDS011;4266;48.816;9.154;2024-01-15T11:57:54;8.53;;;6.50;;
8458;SDS011;4266;48.816;9.154;2024-01-15T12:00:19;9.27;;;6.37;;
8458;SDS011;4266;48.816;9.154;2024-01-15T12:02:45;9.37;;;6.93;;
8458;SDS011;4266;48.816;9.154;2024-01-15T12:05:12;6.97;;;6.27;;
8458;SDS011;4266;48.816;9.154;2024-01-15T12:07:38;9.77;;;7.30;;
8458;SDS011;4266;48.816;9.154;2024-01-15T12:10:08;7.60;;;6.90;;
8458;SDS011;4266;48.816;9.154;2024-01-15T12:12:37;7.77;;;6.70;;
8458;SDS011;4266;48.816;9.154;2024-01-15T12:15:07;7.93;;;6.57;;
8458;SDS011;4266;48.816;9.154;2024-01-15T12:17:33;8.37;;;6.53;;
8458;SDS011;4266;48.816;9.154;2024-01-15T12:19:58;8.70;;;7.20;;
8458;SDS011;4266;48.816;9.154;2024-01-15T12:22:25;8.10;;;6.47;;
8458;SDS011;4266;48.816;9.154;2024-01-15T12:24:50;9.77;;;7.17;;
8458;SDS011;4266;48.816;9.154;2024-01-15T12:27:16;8.43;;;6.73;;
8458;SDS011;4266;48.816;9.154;2024-01-15T12:29:42;11.33;;;7.03;;
8458;SDS011;4266;48.816;9.154;2024-01-15T12:32:08;8.23;;;6.47;;
8458;SDS011;4266;48.816;9.154;2024-01-15T12:34:34;7.37;;;6.57;;
8458;SDS011;4266;48.816;9.154;2024-01-15T12:37:00;6.40;;;5.80;;
8458;SDS011;4266;48.816;9.154;2024-01-15T12:39:25;9.30;;;6.70;;
8458;SDS011;4266;48.816;9.154;2024-01-15T12:41:51;8.70;;;6.53;;
8458;SDS011;4266;48.816;9.154;2024-01-15T12:44:16;6.47;;;5.87;;
8458;SDS011;4266;48.816;9.154;2024-01-15T12:46:42;6.87;;;6.13;;
8458;SDS011;4266;48.816;9.154;2024-01-15T12:49:08;10.00;;;7.27;;
8458;SDS011;4266;48.816;9.154;2024-01-15T12:51:35;7.63;;;6.70;;
8458;SDS011;4266;48.816;9.154;2024-01-15T12:54:01;10.13;;;6.53;;
8458;SDS011;4266;48.816;9.154;2024-01-15T12:56:28;7.67;;;6.47;;
8458;SDS011;4266;48.816;9.154;2024-01-15T12:58:54;8.70;;;6.03;;
8458;SDS011;4266;48.816;9.154;2024-01-15T13:01:20;7.77;;;6.60;;
8458;SDS011;4266;48.816;9.154;2024-01-15T13:03:46;6.70;;;6.10;;
8458;SDS011;4266;48.816;9.154;2024-01-15T13:06:11;6.57;;;5.87;;
8458;SDS011;4266;48.816;9.154;2024-01-15T13:08:37;6.47;;;5.63;;
8458;SDS011;4266;48.816;9.154;2024-01-15T13:11:03;6.30;;;5.67;;
8458;SDS011;4266;48.816;9.154;2024-01-15T13:13:29;6.67;;;5.93;;
8458;SDS011;4266;48.816;9.154;2024-01-15T13:15:55;8.77;;;5.47;;
8458;SDS011;4266;48.816;9.154;2024-01-15T13:18:20;6.57;;;5.87;;
8458;SDS011;4266;48.816;9.154;2024-01-15T13:20:47;6.40;;;5.80;;
8458;SDS011;4266;48.816;9.154;2024-01-15T13:23:13;6.27;;;5.73;;
8458;SDS011;4266;48.816;9.154;2024-01-15T13:25:38;5.77;;;5.27;;
8458;SDS011;4266;48.816;9.154;2024-01-15T13:28:05;16.23;;;5.67;;
8458;SDS011;4266;48.816;9.154;2024-01-15T13:30:31;6.20;;;5.60;;
8458;SDS011;4266;48.816;9.154;2024-01-15T13:32:57;8.47;;;5.10;;
8458;SDS011;4266;48.816;9.154;2024-01-15T13:35:23;5.53;;;5.07;;
8458;SDS011;4266;48.816;9.154;2024-01-15T13:37:49;5.17;;;4.67;;
8458;SDS011;4266;48.816;9.154;2024-01-15T13:40:15;5.40;;;4.97;;
8458;SDS011;4266;48.816;9.154;2024-01-15T13:42:40;5.43;;;4.97;;
8458;SDS011;4266;48.816;9.154;2024-01-15T13:45:07;5.50;;;4.93;;
8458;SDS011;4266;48.816;9.154;2024-01-15T13:47:33;5.73;;;4.87;;
8458;SDS011;4266;48.816;9.154;2024-01-15T13:49:59;5.57;;;5.07;;
8458;SDS011;4266;48.816;9.154;2024-01-15T13:52:25;5.20;;;4.70;;
8458;SDS011;4266;48.816;9.154;2024-01-15T13:54:50;4.83;;;4.43;;
8458;SDS011;4266;48.816;9.154;2024-01-15T13:57:16;5.57;;;5.07;;
8458;SDS011;4266;48.816;9.154;2024-01-15T13:59:42;5.00;;;4.60;;
8458;SDS011;4266;48.816;9.154;2024-01-15T14:02:08;5.77;;;5.20;;
8458;SDS011;4266;48.816;9.154;2024-01-15T14:04:34;5.70;;;4.90;;
8458;SDS011;4266;48.816;9.154;2024-01-15T14:06:59;5.50;;;5.00;;
8458;SDS011;4266;48.816;9.154;2024-01-15T14:09:25;6.00;;;5.40;;
8458;SDS011;4266;48.816;9.154;2024-01-15T14:11:51;6.30;;;5.70;;
8458;SDS011;4266;48.816;9.154;2024-01-15T14:14:16;5.50;;;4.60;;
8458;SDS011;4266;48.816;9.154;2024-01-15T14:16:42;7.90;;;5.00;;
8458;SDS011;4266;48.816;9.154;2024-01-15T14:19:08;7.27;;;4.97;;
8458;SDS011;4266;48.816;9.154;2024-01-15T14:21:33;5.50;;;5.03;;
8458;SDS011;4266;48.816;9.154;2024-01-15T14:23:59;6.33;;;5.47;;
8458;SDS011;4266;48.816;9.154;2024-01-15T14:26:24;7.80;;;5.10;;
8458;SDS011;4266;48.816;9.154;2024-01-15T14:28:50;6.67;;;5.43;;
8458;SDS011;4266;48.816;9.154;2024-01-15T14:31:16;5.57;;;5.07;;
8458;SDS011;4266;48.816;9.154;2024-01-15T14:33:41;8.80;;;5.80;;
8458;SDS011;4266;48.816;9.154;2024-01-15T14:36:08;7.07;;;6.47;;
8458;SDS011;4266;48.816;9.154;2024-01-15T14:38:34;6.90;;;6.30;;
8458;SDS011;4266;48.816;9.154;2024-01-15T14:40:59;7.47;;;6.77;;
8458;SDS011;4266;48.816;9.154;2024-01-15T14:43:26;7.90;;;7.10;;
8458;SDS011;4266;48.816;9.154;2024-01-15T14:45:51;7.73;;;7.03;;
8458;SDS011;4266;48.816;9.154;2024-01-15T14:48:18;8.33;;;7.50;;
8458;SDS011;4266;48.816;9.154;2024-01-15T14:50:43;8.63;;;7.80;;
8458;SDS011;4266;48.816;9.154;2024-01-15T14:53:10;9.10;;;8.30;;
8458;SDS011;4266;48.816;9.154;2024-01-15T14:55:36;8.73;;;7.83;;
8458;SDS011;4266;48.816;9.154;2024-01-15T14:58:02;8.33;;;7.60;;
8458;SDS011;4266;48.816;9.154;2024-01-15T15:00:29;8.83;;;7.97;;
8458;SDS011;4266;48.816;9.154;2024-01-15T15:02:54;10.90;;;8.80;;